This is the latest recevied weather packets stored in our database for station/object N4OGP-WX. If no packets are shown the sender has not sent any weather packets the latest 10 day(s).
| Time | Temp. | Humidity | Pressure | Rain* | Wind** | Luminosity | Snow |
|---|---|---|---|---|---|---|---|
| 1777319236 | 23.89° C | 42% | 1020.4 hPa | 0 mm | - | - | - |
| 1777319146 | 23.89° C | 42% | 1020.4 hPa | 0 mm | - | - | - |
| 1777319056 | 27.78° C | 74% | 1014.5 hPa | 0 mm | - | - | - |
| 1777318996 | 27.78° C | 73% | 1014.6 hPa | 0 mm | - | - | - |
| 1777318936 | 27.22° C | 73% | 1014.6 hPa | 0 mm | - | - | - |
| 1777318876 | 27.22° C | 73% | 1014.6 hPa | 0 mm | - | - | - |
| 1777318816 | 23.89° C | 42% | 1020.4 hPa | 0 mm | - | - | - |
| 1777318726 | 27.22° C | 74% | 1014.6 hPa | 0 mm | - | - | - |
| 1777318666 | 23.89° C | 42% | 1020.4 hPa | 0 mm | - | - | - |
| 1777318606 | 27.22° C | 74% | 1014.6 hPa | 0 mm | - | - | - |
| 1777318546 | 26.67° C | 74% | 1014.5 hPa | 0 mm | - | - | - |
| 1777318456 | 26.67° C | 74% | 1014.5 hPa | 0 mm | - | - | - |
| 1777318396 | 26.67° C | 74% | 1014.5 hPa | 0 mm | - | - | - |
| 1777318306 | 26.67° C | 75% | 1014.5 hPa | 0 mm | - | - | - |
| 1777318246 | 26.67° C | 75% | 1014.4 hPa | 0 mm | - | - | - |
| 1777318156 | 26.67° C | 74% | 1014.4 hPa | 0 mm | - | - | - |
| 1777318066 | 26.67° C | 75% | 1014.4 hPa | 0 mm | - | - | - |
| 1777317976 | 26.67° C | 75% | 1014.4 hPa | 0 mm | - | - | - |
| 1777317916 | 26.67° C | 75% | 1014.3 hPa | 0 mm | - | - | - |
| 1777317856 | 26.67° C | 75% | 1014.3 hPa | 0 mm | - | - | - |
| 1777317796 | 23.89° C | 42% | 1020.4 hPa | 0 mm | - | - | - |
| 1777317736 | 26.67° C | 75% | 1014.3 hPa | 0 mm | - | - | - |
| 1777317676 | 26.67° C | 75% | 1014.4 hPa | 0 mm | - | - | - |
| 1777317616 | 26.67° C | 76% | 1014.3 hPa | 0 mm | - | - | - |
| 1777317556 | 26.67° C | 75% | 1014.3 hPa | 0 mm | - | - | - |
* Rain latest hour (hover to see other rain measurements)
** Current wind speed in m/s (hover to see current wind gust speed)